»·PEaware :: N8408E KOXR-KSMX

N8408E :: KOXR-KSMX

FLIGHT INFORMATION

Flight Status: Arrived
Operator: Privately registered:
United States
More flights under this callsign
Pilot: John H. (22960)
Aircraft: CESSNA 172 SKYHAWK
(C172)
More flights by this aircraft type
Origin: KOXR Oxnard
United States
Destination: KSMX Santa Maria Pub/Capt Hancock
United States
More flights between these airports :: More routes between these airports
Route: +V25 RZS RZS286 KOAKS
File this flight plan on PilotEdge
Remarks: Request Camarillo 6 Dept, KSMX BAC
Altitude:
(Current/Filed)
8,000ft
Speed:
(Current/Filed)
115kts
Departed: 12-Jan-19 01:13 PM
Arrived: 12-Jan-19 02:22 PM
Distance/Time
Traveled:
75nm/1:09
Distance/Time
To Go:
Arrived

Flight Plot

Page will automatically refresh every two minutes.


Map Options




Map Legend


Flown Route
Filed Route
Departure Airport
Arrival Airport
Navaid (VOR, NDB)
Fix

Horizontal Profiles

Position Reports

Time Latitude Longitude Heading Altitude Ground
Speed
12-Jan-19 13:00 34.198731 -119.202074 359 40ft 0kts
12-Jan-19 13:01 34.198731 -119.202074 359 40ft 0kts
12-Jan-19 13:02 34.198731 -119.202074 359 40ft 0kts
12-Jan-19 13:03 34.198731 -119.202074 359 40ft 0kts
12-Jan-19 13:04 34.198731 -119.202074 359 40ft 0kts
12-Jan-19 13:05 34.198731 -119.202074 359 40ft 0kts
12-Jan-19 13:06 34.198731 -119.202074 359 40ft 0kts
12-Jan-19 13:07 34.198731 -119.202074 359 40ft 0kts
12-Jan-19 13:08 34.198731 -119.202074 359 40ft 0kts
12-Jan-19 13:09 34.199612 -119.202350 314 40ft 14kts
12-Jan-19 13:10 34.199836 -119.211508 270 34ft 36kts
12-Jan-19 13:11 34.200020 -119.216799 314 30ft 0kts
12-Jan-19 13:12 34.200852 -119.212051 90 42ft 74kts
12-Jan-19 13:13 34.202389 -119.186671 81 1150ft 76kts
12-Jan-19 13:14 34.204862 -119.160919 84 2239ft 79kts
12-Jan-19 13:15 34.207608 -119.134790 79 3300ft 80kts
12-Jan-19 13:16 34.211070 -119.108490 57 4274ft 81kts
12-Jan-19 13:17 34.224598 -119.123056 289 5197ft 78kts
12-Jan-19 13:18 34.232526 -119.149206 290 6022ft 84kts
12-Jan-19 13:19 34.240856 -119.175507 289 6843ft 84kts
12-Jan-19 13:20 34.250392 -119.201720 291 7648ft 87kts
12-Jan-19 13:21 34.261155 -119.230913 293 8017ft 111kts
12-Jan-19 13:22 34.273445 -119.266351 297 7975ft 115kts
12-Jan-19 13:23 34.290915 -119.298095 302 7975ft 114kts
12-Jan-19 13:24 34.310663 -119.327682 310 7973ft 114kts
12-Jan-19 13:25 34.328462 -119.359076 300 7968ft 113kts
12-Jan-19 13:26 34.342734 -119.393413 295 7946ft 114kts
12-Jan-19 13:27 34.358552 -119.426444 302 7958ft 113kts
12-Jan-19 13:28 34.375791 -119.458292 304 7959ft 113kts
12-Jan-19 13:29 34.394181 -119.489215 303 7965ft 113kts
12-Jan-19 13:30 34.408534 -119.523088 295 7969ft 113kts
12-Jan-19 13:31 34.422079 -119.557621 295 7950ft 114kts
12-Jan-19 13:32 34.435748 -119.591939 296 7966ft 113kts
12-Jan-19 13:33 34.448172 -119.627096 288 7964ft 113kts
12-Jan-19 13:34 34.459353 -119.662668 294 7978ft 112kts
12-Jan-19 13:35 34.474566 -119.696071 298 7951ft 115kts
12-Jan-19 13:36 34.490932 -119.729204 303 7948ft 113kts
12-Jan-19 13:37 34.509239 -119.760179 298 7961ft 112kts
12-Jan-19 13:38 34.524001 -119.793788 294 7945ft 114kts
12-Jan-19 13:39 34.537928 -119.828296 300 7931ft 114kts
12-Jan-19 13:40 34.552064 -119.862727 298 7942ft 112kts
12-Jan-19 13:41 34.569023 -119.893758 303 7840ft 108kts
12-Jan-19 13:42 34.584800 -119.924729 301 7272ft 106kts
12-Jan-19 13:43 34.599877 -119.955428 301 6742ft 106kts
12-Jan-19 13:44 34.614607 -119.986057 298 6243ft 104kts
12-Jan-19 13:45 34.629482 -120.017489 298 5973ft 112kts
12-Jan-19 13:46 34.644280 -120.051774 299 5929ft 114kts
12-Jan-19 13:47 34.659837 -120.084945 297 5937ft 111kts
12-Jan-19 13:48 34.675977 -120.117421 304 5960ft 111kts
12-Jan-19 13:49 34.691325 -120.147981 300 5522ft 102kts
12-Jan-19 13:50 34.705998 -120.177420 300 5029ft 101kts
12-Jan-19 13:51 34.720709 -120.206470 301 4584ft 100kts
12-Jan-19 13:52 34.735422 -120.235312 303 4152ft 100kts
12-Jan-19 13:53 34.751094 -120.264502 311 3987ft 113kts
12-Jan-19 13:54 34.774475 -120.284905 325 3922ft 92kts
12-Jan-19 13:55 34.794911 -120.301905 325 3922ft 85kts
12-Jan-19 13:56 34.815061 -120.319621 324 3987ft 96kts
12-Jan-19 13:57 34.837273 -120.339024 321 3957ft 99kts
12-Jan-19 13:58 34.859913 -120.358129 326 3909ft 99kts
12-Jan-19 13:59 34.882328 -120.376873 325 3924ft 95kts
12-Jan-19 14:00 34.903748 -120.394786 325 3961ft 94kts
12-Jan-19 14:01 34.924986 -120.413417 325 3968ft 96kts
12-Jan-19 14:02 34.945134 -120.434326 316 3967ft 96kts
12-Jan-19 14:03 34.964205 -120.457343 315 3978ft 95kts
12-Jan-19 14:04 34.984272 -120.479028 318 3949ft 97kts
12-Jan-19 14:05 35.003709 -120.501668 314 3947ft 96kts
12-Jan-19 14:06 35.023139 -120.524376 316 3931ft 97kts
12-Jan-19 14:07 35.042386 -120.547117 315 3940ft 96kts
12-Jan-19 14:08 35.061679 -120.569883 314 3940ft 96kts
12-Jan-19 14:09 35.080963 -120.592663 317 3935ft 96kts
12-Jan-19 14:10 35.078599 -120.621701 245 3634ft 91kts
12-Jan-19 14:11 35.067555 -120.651051 244 3202ft 94kts
12-Jan-19 14:12 35.048584 -120.656004 125 2932ft 94kts
12-Jan-19 14:13 35.037667 -120.628595 102 2895ft 88kts
12-Jan-19 14:14 35.024026 -120.603354 133 2774ft 92kts
12-Jan-19 14:15 35.006118 -120.580938 135 2877ft 94kts
12-Jan-19 14:16 34.987104 -120.557981 138 2690ft 103kts
12-Jan-19 14:17 34.964923 -120.532898 136 2208ft 112kts
12-Jan-19 14:18 34.943103 -120.505846 136 1413ft 99kts
12-Jan-19 14:19 34.924266 -120.483547 132 564ft 99kts
12-Jan-19 14:20 34.909766 -120.466393 138 342ft 70kts
12-Jan-19 14:21 34.903382 -120.456787 45 265ft 0kts
12-Jan-19 14:22 34.903405 -120.456760 44 265ft 2kts
12-Jan-19 14:23 34.901215 -120.453391 96 265ft 5kts

Navigation Log

Ident Type
Flight plan parsing failed, navigation log unavailable